Time;durP1;ratioP1;P1;durP2;ratioP2;P2;SDS_P1;SDS_P2;PMS_P1;PMS_P2;Temp;Humidity;BMP_temperature;BMP_pressure;BME280_temperature;BME280_humidity;BME280_pressure;Samples;Min_cycle;Max_cycle;Signal;HPM_P1;HPM_P2
2021/05/14 00:00:10;;;;;;;21.50;14.80;;;13.20;99.90;;;;;;5046687;28;20296;-50
2021/05/14 00:02:40;;;;;;;21.80;14.43;;;13.10;99.90;;;;;;5044871;28;20249;-49
2021/05/14 00:05:07;;;;;;;21.60;14.33;;;13.00;99.90;;;;;;5043182;28;20216;-50
2021/05/14 00:07:34;;;;;;;21.33;13.80;;;13.00;99.90;;;;;;5045074;28;20248;-49
2021/05/14 00:10:01;;;;;;;19.37;13.40;;;13.10;99.90;;;;;;5041993;28;20224;-49
2021/05/14 00:12:28;;;;;;;21.80;13.77;;;13.00;99.90;;;;;;5042437;28;20292;-49
2021/05/14 00:14:55;;;;;;;20.33;13.93;;;12.90;99.90;;;;;;5041400;28;20657;-49
2021/05/14 00:17:21;;;;;;;17.67;12.50;;;12.80;99.90;;;;;;5043853;28;21205;-49
2021/05/14 00:19:48;;;;;;;20.77;13.50;;;12.70;99.90;;;;;;5042360;28;20652;-49
2021/05/14 00:22:15;;;;;;;17.23;12.20;;;12.80;99.90;;;;;;5043294;28;20650;-49
2021/05/14 00:24:42;;;;;;;21.47;14.10;;;12.80;99.90;;;;;;5041850;28;20707;-49
2021/05/14 00:27:09;;;;;;;22.00;14.60;;;12.70;99.90;;;;;;5043125;28;20223;-50
2021/05/14 00:29:36;;;;;;;21.83;14.53;;;12.70;99.90;;;;;;5044507;28;20196;-50
2021/05/14 00:32:03;;;;;;;21.27;13.87;;;12.50;99.90;;;;;;5041884;28;20322;-49
2021/05/14 00:34:30;;;;;;;19.70;13.97;;;12.50;99.90;;;;;;5042466;28;20258;-50
2021/05/14 00:36:56;;;;;;;21.67;14.57;;;12.70;99.90;;;;;;5040865;28;21348;-50
2021/05/14 00:39:23;;;;;;;22.87;13.13;;;12.70;99.90;;;;;;5042697;28;20203;-49
2021/05/14 00:41:50;;;;;;;22.57;14.20;;;12.60;99.90;;;;;;5041595;28;20216;-50
2021/05/14 00:44:37;;;;;;;19.40;13.63;;;12.50;99.90;;;;;;5042415;28;20661;-49
2021/05/14 00:47:08;;;;;;;20.87;15.23;;;12.30;99.90;;;;;;5042200;28;20227;-50
2021/05/14 00:49:35;;;;;;;22.60;14.77;;;12.40;99.90;;;;;;5041479;28;20231;-50
2021/05/14 00:52:03;;;;;;;21.87;14.77;;;12.50;99.90;;;;;;5040715;28;20302;-49
2021/05/14 00:54:31;;;;;;;23.17;15.67;;;12.40;99.90;;;;;;5042539;28;20202;-50
2021/05/14 00:56:58;;;;;;;25.00;15.97;;;12.30;99.90;;;;;;5045477;28;20290;-50
2021/05/14 00:59:26;;;;;;;22.87;15.20;;;12.30;99.90;;;;;;5040385;28;20222;-50
2021/05/14 01:01:53;;;;;;;24.40;15.80;;;12.30;99.90;;;;;;5040586;28;20330;-50
2021/05/14 01:04:21;;;;;;;23.63;15.37;;;12.30;99.90;;;;;;5042279;28;20234;-50
2021/05/14 01:06:48;;;;;;;22.10;14.90;;;12.30;99.90;;;;;;5042433;28;20203;-50
2021/05/14 01:09:14;;;;;;;24.43;15.67;;;12.40;99.90;;;;;;5042670;28;20309;-49
2021/05/14 01:11:41;;;;;;;23.63;14.67;;;12.50;99.90;;;;;;5044948;28;20427;-50
2021/05/14 01:14:10;;;;;;;21.23;14.97;;;12.50;99.90;;;;;;5041760;28;20249;-49
2021/05/14 01:16:37;;;;;;;25.10;15.57;;;12.30;99.90;;;;;;5043095;28;20207;-49
2021/05/14 01:19:04;;;;;;;25.00;15.77;;;12.30;99.90;;;;;;5041795;28;20223;-50
2021/05/14 01:21:32;;;;;;;21.67;15.10;;;12.40;99.90;;;;;;5042183;28;20289;-49
2021/05/14 01:23:59;;;;;;;22.90;14.83;;;12.40;99.90;;;;;;5042853;28;20635;-50
2021/05/14 01:26:26;;;;;;;24.83;15.90;;;12.30;99.90;;;;;;5046103;28;20239;-50
2021/05/14 01:28:55;;;;;;;23.40;14.97;;;12.40;99.90;;;;;;5048791;28;20215;-50
2021/05/14 01:31:23;;;;;;;23.23;14.90;;;12.40;99.90;;;;;;5045472;28;20287;-49
2021/05/14 01:33:51;;;;;;;25.33;15.47;;;12.40;99.90;;;;;;5046372;28;20199;-49
2021/05/14 01:36:18;;;;;;;23.33;15.50;;;12.40;99.90;;;;;;5045631;28;20212;-49
2021/05/14 01:38:46;;;;;;;25.37;15.00;;;12.40;99.90;;;;;;5046035;28;20210;-49
2021/05/14 01:41:13;;;;;;;25.57;15.90;;;12.40;99.90;;;;;;5044407;28;20389;-50
2021/05/14 01:43:40;;;;;;;25.17;15.43;;;12.40;99.90;;;;;;5046781;28;20226;-49
2021/05/14 01:46:07;;;;;;;23.87;14.83;;;12.40;99.90;;;;;;5047024;28;20210;-50
2021/05/14 01:48:34;;;;;;;25.77;15.60;;;12.30;99.90;;;;;;5046567;28;20302;-49
2021/05/14 01:51:21;;;;;;;24.97;16.17;;;12.30;99.90;;;;;;5034174;28;20317;-49
2021/05/14 01:53:49;;;;;;;28.23;15.47;;;12.40;99.90;;;;;;5042544;28;20218;-49
2021/05/14 01:56:16;;;;;;;24.20;15.17;;;12.40;99.90;;;;;;5045101;28;20682;-49
2021/05/14 01:58:44;;;;;;;26.83;15.73;;;12.40;99.90;;;;;;5046965;28;20628;-49
2021/05/14 02:01:11;;;;;;;26.33;16.17;;;12.40;99.90;;;;;;5044556;28;20280;-50
2021/05/14 02:03:38;;;;;;;22.77;15.27;;;12.40;99.90;;;;;;5045512;28;20219;-49
2021/05/14 02:06:05;;;;;;;26.87;16.40;;;12.30;99.90;;;;;;5045778;28;20244;-50
2021/05/14 02:08:32;;;;;;;25.17;16.07;;;12.30;99.90;;;;;;5046338;28;20206;-50
2021/05/14 02:10:59;;;;;;;22.60;15.17;;;12.30;99.90;;;;;;5046595;28;20231;-49
2021/05/14 02:13:26;;;;;;;24.97;15.60;;;12.30;99.90;;;;;;5045491;28;20205;-49
2021/05/14 02:15:53;;;;;;;22.87;15.00;;;12.10;99.90;;;;;;5046200;28;20211;-50
2021/05/14 02:18:20;;;;;;;25.13;16.37;;;12.00;99.90;;;;;;5046080;28;20210;-50
2021/05/14 02:20:47;;;;;;;25.23;15.40;;;12.00;99.90;;;;;;5046404;28;20292;-50
2021/05/14 02:23:14;;;;;;;26.97;16.33;;;11.90;99.90;;;;;;5047565;28;20227;-50
2021/05/14 02:25:41;;;;;;;23.83;15.50;;;11.70;99.90;;;;;;5045545;28;20257;-50
2021/05/14 02:28:09;;;;;;;25.87;15.70;;;11.80;99.90;;;;;;5045042;28;20323;-49
2021/05/14 02:30:36;;;;;;;25.13;15.17;;;11.90;99.90;;;;;;5043365;28;20211;-50
2021/05/14 02:33:04;;;;;;;26.97;15.10;;;11.90;99.90;;;;;;5044003;28;20506;-50
2021/05/14 02:35:31;;;;;;;21.70;13.97;;;11.80;99.90;;;;;;5044818;28;20720;-49
2021/05/14 02:37:58;;;;;;;19.40;12.47;;;11.60;99.90;;;;;;5045069;28;20671;-49
2021/05/14 02:40:25;;;;;;;19.13;12.37;;;11.70;99.90;;;;;;5045390;28;20313;-48
2021/05/14 02:42:51;;;;;;;17.33;11.57;;;11.60;99.90;;;;;;5044669;28;20304;-50
2021/05/14 02:45:18;;;;;;;18.30;13.23;;;11.70;99.90;;;;;;5045614;28;20227;-49
2021/05/14 02:47:45;;;;;;;18.90;12.40;;;11.70;99.90;;;;;;5045602;28;20203;-50
2021/05/14 02:50:13;;;;;;;19.77;12.73;;;11.80;99.90;;;;;;5045031;28;20571;-50
2021/05/14 02:52:40;;;;;;;22.80;13.10;;;11.90;99.90;;;;;;5044107;28;20373;-49
2021/05/14 02:55:09;;;;;;;23.43;14.07;;;11.70;99.90;;;;;;5042470;28;20698;-50
2021/05/14 02:57:36;;;;;;;20.13;13.13;;;11.80;99.90;;;;;;5045540;28;20243;-49
2021/05/14 03:00:06;;;;;;;23.17;14.50;;;11.80;99.90;;;;;;5043610;28;20443;-50
2021/05/14 03:02:33;;;;;;;21.80;13.40;;;11.60;99.90;;;;;;5045184;28;20341;-49
2021/05/14 03:04:59;;;;;;;22.77;14.57;;;11.60;99.90;;;;;;5044680;28;20221;-49
2021/05/14 03:07:26;;;;;;;20.57;13.40;;;11.70;99.90;;;;;;5045018;28;20661;-50
2021/05/14 03:09:53;;;;;;;22.73;14.50;;;11.50;99.90;;;;;;5042453;28;20282;-49
2021/05/14 03:12:20;;;;;;;20.10;13.80;;;11.60;99.90;;;;;;5047050;28;20563;-50
2021/05/14 03:14:47;;;;;;;20.60;13.07;;;11.60;99.90;;;;;;5046651;28;20884;-50
2021/05/14 03:17:14;;;;;;;20.77;12.97;;;11.30;99.90;;;;;;5044893;28;20235;-49
2021/05/14 03:19:40;;;;;;;21.07;13.43;;;11.20;99.90;;;;;;5042828;28;20642;-50
2021/05/14 03:22:07;;;;;;;20.87;12.50;;;11.30;99.90;;;;;;5042142;28;20488;-49
2021/05/14 03:24:34;;;;;;;21.90;12.73;;;11.40;99.90;;;;;;5042053;28;20308;-49
2021/05/14 03:27:01;;;;;;;20.73;12.60;;;11.50;99.90;;;;;;5044725;28;20231;-49
2021/05/14 03:29:28;;;;;;;21.20;12.23;;;11.40;99.90;;;;;;5043794;28;20302;-49
2021/05/14 03:31:55;;;;;;;19.37;12.40;;;11.50;99.90;;;;;;5041568;28;20282;-49
2021/05/14 03:34:22;;;;;;;19.93;12.83;;;11.40;99.90;;;;;;5043958;28;20301;-50
2021/05/14 03:36:49;;;;;;;20.37;12.17;;;11.40;99.90;;;;;;5043442;28;20316;-48
2021/05/14 03:39:20;;;;;;;18.97;11.97;;;11.40;99.90;;;;;;5046081;28;20378;-49
2021/05/14 03:41:50;;;;;;;20.87;12.70;;;11.40;99.90;;;;;;5043021;28;20342;-50
2021/05/14 03:44:17;;;;;;;19.07;12.13;;;11.30;99.90;;;;;;5043646;28;20814;-49
2021/05/14 03:46:44;;;;;;;19.17;12.20;;;11.30;99.90;;;;;;5043679;28;20237;-48
2021/05/14 03:49:11;;;;;;;21.53;13.33;;;11.30;99.90;;;;;;5032807;28;20309;-48
2021/05/14 03:51:39;;;;;;;20.43;12.67;;;11.40;99.90;;;;;;5044842;28;20237;-48
2021/05/14 03:54:06;;;;;;;21.23;13.00;;;11.40;99.90;;;;;;5046037;28;20256;-49
2021/05/14 03:56:33;;;;;;;18.57;12.47;;;11.30;99.90;;;;;;5043928;28;20278;-49
2021/05/14 03:59:00;;;;;;;20.03;12.27;;;11.30;99.90;;;;;;5046735;28;20274;-49
2021/05/14 04:01:30;;;;;;;20.00;13.00;;;11.30;99.90;;;;;;5042562;28;20219;-49
2021/05/14 04:03:58;;;;;;;19.50;12.23;;;11.40;99.90;;;;;;5045763;28;20252;-48
2021/05/14 04:06:25;;;;;;;21.90;12.83;;;11.40;99.90;;;;;;5044078;28;20309;-49
2021/05/14 04:08:52;;;;;;;18.00;11.63;;;11.30;99.90;;;;;;5043443;28;20646;-49
2021/05/14 04:16:37;;;;;;;18.00;11.53;;;11.30;99.90;;;;;;5043499;28;20602;-48
2021/05/14 04:19:04;;;;;;;19.27;11.70;;;11.30;99.90;;;;;;5043701;28;20206;-48
2021/05/14 04:21:31;;;;;;;16.20;10.77;;;11.30;99.90;;;;;;5042997;28;20202;-49
2021/05/14 04:23:57;;;;;;;22.37;13.23;;;11.30;99.90;;;;;;5042589;28;20306;-49
2021/05/14 04:26:24;;;;;;;21.20;12.63;;;11.30;99.90;;;;;;5045075;28;20234;-49
2021/05/14 04:28:51;;;;;;;23.57;14.60;;;11.50;99.90;;;;;;5043627;28;20260;-49
2021/05/14 04:31:18;;;;;;;24.60;15.03;;;11.60;99.90;;;;;;5041545;28;20863;-48
2021/05/14 04:33:45;;;;;;;25.07;15.00;;;11.50;99.90;;;;;;5044229;28;20205;-49
2021/05/14 04:36:11;;;;;;;24.40;13.53;;;11.70;99.90;;;;;;5042787;28;20256;-49
2021/05/14 04:38:38;;;;;;;26.87;14.70;;;11.60;99.90;;;;;;5043411;28;20264;-49
2021/05/14 04:41:05;;;;;;;21.37;13.40;;;11.60;99.90;;;;;;5041137;28;20325;-49
2021/05/14 04:43:32;;;;;;;24.40;13.40;;;11.60;99.90;;;;;;5044235;28;20221;-49
2021/05/14 04:45:58;;;;;;;25.23;14.10;;;11.70;99.90;;;;;;5041510;28;20207;-49
2021/05/14 04:48:25;;;;;;;25.07;13.90;;;11.80;99.90;;;;;;5045565;28;20203;-49
2021/05/14 04:50:52;;;;;;;24.70;14.90;;;11.80;99.90;;;;;;5046452;28;20230;-49
2021/05/14 04:53:21;;;;;;;23.90;14.47;;;11.70;99.90;;;;;;5043334;28;20276;-49
2021/05/14 04:55:48;;;;;;;25.60;14.40;;;11.70;99.90;;;;;;5043643;28;20399;-49
2021/05/14 04:58:15;;;;;;;23.97;14.03;;;11.50;99.90;;;;;;5042773;28;20201;-49
2021/05/14 05:00:42;;;;;;;23.47;13.77;;;11.30;99.90;;;;;;5044929;28;20373;-49
2021/05/14 05:03:08;;;;;;;20.93;13.27;;;11.30;99.90;;;;;;5048147;28;20629;-49
2021/05/14 05:05:36;;;;;;;20.13;12.63;;;11.20;99.90;;;;;;5048276;28;20672;-49
2021/05/14 05:08:04;;;;;;;24.37;13.10;;;11.00;99.90;;;;;;5043954;28;20757;-49
2021/05/14 05:10:31;;;;;;;25.93;14.03;;;10.80;99.90;;;;;;5047670;28;20315;-49
2021/05/14 05:12:57;;;;;;;19.57;11.80;;;10.80;99.90;;;;;;5046473;28;20734;-49
2021/05/14 05:15:24;;;;;;;22.27;12.60;;;10.80;99.90;;;;;;5047087;28;20830;-49
2021/05/14 05:17:52;;;;;;;21.97;12.47;;;10.80;99.90;;;;;;5046969;28;20313;-49
2021/05/14 05:20:18;;;;;;;26.30;14.30;;;10.80;99.90;;;;;;5048612;28;20355;-49
2021/05/14 05:22:45;;;;;;;24.07;12.93;;;10.90;99.90;;;;;;5046877;28;20288;-49
2021/05/14 05:25:13;;;;;;;18.83;11.70;;;11.20;99.90;;;;;;5045627;28;20262;-49
2021/05/14 05:27:41;;;;;;;23.57;13.63;;;11.30;99.90;;;;;;5045392;28;20398;-49
2021/05/14 05:30:08;;;;;;;19.13;12.43;;;11.40;99.90;;;;;;5044154;28;20305;-49
2021/05/14 05:32:35;;;;;;;21.57;12.53;;;11.60;99.90;;;;;;5045926;28;20604;-50
2021/05/14 05:35:02;;;;;;;22.63;13.07;;;11.60;99.90;;;;;;5047049;28;20238;-49
2021/05/14 05:37:29;;;;;;;21.77;12.17;;;11.70;99.90;;;;;;5046478;28;20210;-49
2021/05/14 05:39:56;;;;;;;21.57;12.27;;;11.60;99.90;;;;;;5045036;28;20321;-49
2021/05/14 05:42:23;;;;;;;22.03;13.07;;;11.70;99.90;;;;;;5043852;28;20247;-49
2021/05/14 05:44:50;;;;;;;20.40;12.37;;;11.70;99.90;;;;;;5045224;28;20230;-49
2021/05/14 05:47:17;;;;;;;20.27;12.43;;;11.80;99.90;;;;;;5045111;28;20207;-49
2021/05/14 05:49:44;;;;;;;20.77;12.63;;;11.90;99.90;;;;;;5047198;28;21992;-48
2021/05/14 05:52:10;;;;;;;22.90;12.77;;;11.80;99.90;;;;;;5047147;28;21042;-49
2021/05/14 05:54:37;;;;;;;19.00;12.13;;;11.90;99.90;;;;;;5047597;28;20210;-49
2021/05/14 05:57:04;;;;;;;19.53;12.60;;;12.10;99.90;;;;;;5044664;28;20206;-49
2021/05/14 05:59:31;;;;;;;21.60;12.43;;;12.00;99.90;;;;;;5043988;28;20254;-49
2021/05/14 06:01:58;;;;;;;22.03;12.20;;;11.80;99.90;;;;;;5038950;28;20215;-49
2021/05/14 06:04:26;;;;;;;19.27;11.97;;;11.50;99.90;;;;;;5046549;28;20217;-49
2021/05/14 06:06:53;;;;;;;20.00;12.37;;;11.30;99.90;;;;;;5046768;28;20296;-49
2021/05/14 06:09:20;;;;;;;18.57;12.00;;;11.40;99.90;;;;;;5043119;28;20195;-49
2021/05/14 06:11:46;;;;;;;20.53;12.57;;;11.40;99.90;;;;;;5048448;28;20272;-49
2021/05/14 06:14:13;;;;;;;20.00;12.63;;;11.40;99.90;;;;;;5047030;28;20702;-49
2021/05/14 06:16:40;;;;;;;22.30;12.40;;;11.70;99.90;;;;;;5045430;28;20299;-49
2021/05/14 06:19:17;;;;;;;19.80;12.17;;;11.80;99.90;;;;;;5047366;28;20201;-49
2021/05/14 06:21:49;;;;;;;25.60;13.33;;;11.90;99.90;;;;;;5046778;28;20670;-49
2021/05/14 06:24:17;;;;;;;22.33;13.60;;;12.10;99.90;;;;;;5046926;28;20359;-49
2021/05/14 06:26:45;;;;;;;23.87;14.77;;;12.20;99.90;;;;;;5047935;28;20280;-49
2021/05/14 06:29:12;;;;;;;22.73;13.03;;;12.20;99.90;;;;;;5047053;28;20613;-49
2021/05/14 06:31:40;;;;;;;28.10;15.07;;;12.20;99.90;;;;;;5046934;28;20254;-50
2021/05/14 06:34:07;;;;;;;22.93;13.80;;;12.40;99.90;;;;;;5047655;28;20267;-49
2021/05/14 06:36:34;;;;;;;27.03;15.53;;;12.60;99.90;;;;;;5046911;28;20203;-49
2021/05/14 06:39:02;;;;;;;27.37;14.90;;;12.70;99.90;;;;;;5051258;28;20292;-49
2021/05/14 06:41:29;;;;;;;28.03;16.13;;;12.60;99.90;;;;;;5044744;28;20203;-49
2021/05/14 06:43:57;;;;;;;26.57;16.33;;;12.50;99.90;;;;;;5046909;28;20632;-49
2021/05/14 06:46:25;;;;;;;30.93;16.70;;;12.80;99.90;;;;;;5046585;28;20915;-49
2021/05/14 06:48:52;;;;;;;26.50;15.87;;;12.80;99.90;;;;;;5047273;28;20300;-49
2021/05/14 06:51:19;;;;;;;30.07;16.77;;;12.80;99.90;;;;;;5042791;28;20317;-49
2021/05/14 06:53:47;;;;;;;32.73;16.80;;;12.90;99.90;;;;;;5041886;28;20528;-49
2021/05/14 06:56:14;;;;;;;26.30;17.23;;;13.00;99.90;;;;;;5044103;28;20549;-49
2021/05/14 06:58:41;;;;;;;29.43;17.07;;;13.20;99.90;;;;;;5042210;28;20346;-49
2021/05/14 07:01:07;;;;;;;28.20;16.50;;;13.40;99.90;;;;;;5035299;28;20682;-50
2021/05/14 07:03:34;;;;;;;29.57;16.97;;;13.80;99.90;;;;;;5029402;28;20244;-50
2021/05/14 07:06:04;;;;;;;26.20;16.37;;;14.00;99.90;;;;;;5041319;28;20285;-51
2021/05/14 07:08:31;;;;;;;26.47;15.60;;;14.00;99.90;;;;;;5044469;28;20204;-51
2021/05/14 07:10:58;;;;;;;26.10;15.13;;;14.10;99.90;;;;;;5043500;28;20790;-50
2021/05/14 07:13:25;;;;;;;29.20;15.80;;;14.40;1.00;;;;;;5044548;28;20588;-49
2021/05/14 07:15:52;;;;;;;24.83;14.40;;;14.60;1.00;;;;;;5041751;28;20226;-51
2021/05/14 07:18:19;;;;;;;24.83;14.33;;;14.50;1.00;;;;;;5041362;28;20235;-50
2021/05/14 07:20:46;;;;;;;26.53;15.73;;;14.50;99.90;;;;;;5045513;28;20299;-51
2021/05/14 07:23:12;;;;;;;24.83;14.70;;;14.50;1.00;;;;;;5043051;28;20552;-50
2021/05/14 07:25:39;;;;;;;24.73;15.13;;;14.20;99.90;;;;;;5047820;28;20309;-51
2021/05/14 07:28:06;;;;;;;25.03;13.80;;;14.60;37.60;;;;;;5046160;28;20257;-50
2021/05/14 07:30:33;;;;;;;24.27;15.13;;;14.80;1.00;;;;;;5044554;28;20743;-51
2021/05/14 07:33:00;;;;;;;23.03;14.13;;;15.00;1.00;;;;;;5044890;28;20201;-50
2021/05/14 07:35:27;;;;;;;25.90;15.03;;;14.90;1.00;;;;;;5046373;28;20693;-57
2021/05/14 07:38:08;;;;;;;20.53;13.80;;;15.20;99.90;;;;;;5044232;28;20345;-51
2021/05/14 07:40:35;;;;;;;22.33;13.50;;;15.20;1.00;;;;;;5043079;28;20263;-50
2021/05/14 07:43:02;;;;;;;22.60;12.73;;;15.40;99.90;;;;;;5049493;28;20276;-50
2021/05/14 07:45:29;;;;;;;19.50;12.87;;;15.50;99.90;;;;;;5046005;28;20234;-49
2021/05/14 07:48:19;;;;;;;21.60;13.13;;;15.70;1.00;;;;;;5046611;28;20528;-51
2021/05/14 07:50:51;;;;;;;21.90;12.67;;;16.00;1.00;;;;;;5044492;28;20346;-50
2021/05/14 07:53:17;;;;;;;21.87;13.23;;;15.50;99.90;;;;;;5046720;28;20256;-50
2021/05/14 07:55:44;;;;;;;20.97;12.53;;;15.50;99.90;;;;;;5046670;28;20539;-50
2021/05/14 07:58:11;;;;;;;22.60;13.10;;;15.50;1.00;;;;;;5047334;28;20261;-51
2021/05/14 08:00:41;;;;;;;22.73;12.50;;;15.60;1.00;;;;;;5046795;28;20208;-50
2021/05/14 08:03:08;;;;;;;19.30;12.00;;;15.70;99.90;;;;;;5048306;28;20205;-50
2021/05/14 08:05:35;;;;;;;18.70;11.43;;;15.90;1.00;;;;;;5045815;28;20251;-50
2021/05/14 08:08:10;;;;;;;21.83;11.77;;;15.70;1.00;;;;;;5048663;28;20218;-50
2021/05/14 08:10:41;;;;;;;17.67;11.90;;;15.70;1.00;;;;;;5047884;28;20199;-50
2021/05/14 08:13:17;;;;;;;20.43;12.13;;;15.70;1.00;;;;;;5047398;28;20309;-51
2021/05/14 08:15:45;;;;;;;20.50;12.20;;;15.50;1.00;;;;;;5046635;28;20718;-50
2021/05/14 08:18:12;;;;;;;16.83;11.87;;;15.50;99.90;;;;;;5045950;28;20203;-50
2021/05/14 08:20:41;;;;;;;16.73;12.13;;;15.70;1.00;;;;;;5046184;28;20199;-51
2021/05/14 08:23:08;;;;;;;17.73;12.10;;;15.60;1.00;;;;;;5046214;28;20736;-50
2021/05/14 08:25:35;;;;;;;18.27;11.53;;;15.90;1.00;;;;;;5048514;28;20257;-50
2021/05/14 08:28:03;;;;;;;18.37;11.50;;;16.00;99.90;;;;;;5047927;28;20230;-51
2021/05/14 08:30:30;;;;;;;20.70;12.43;;;15.50;1.00;;;;;;5046414;28;20242;-50
2021/05/14 08:32:57;;;;;;;19.30;12.10;;;15.90;99.90;;;;;;5051892;28;20249;-50
2021/05/14 08:35:24;;;;;;;18.77;12.07;;;16.10;99.90;;;;;;5051157;28;20282;-50
2021/05/14 08:37:52;;;;;;;20.80;11.67;;;16.20;57.80;;;;;;5050124;28;20208;-51
2021/05/14 08:40:19;;;;;;;14.83;10.57;;;16.50;99.90;;;;;;5051458;28;20707;-50
2021/05/14 08:42:46;;;;;;;18.07;11.60;;;16.30;1.00;;;;;;5050119;28;20283;-51
2021/05/14 08:45:14;;;;;;;15.83;10.80;;;16.10;1.00;;;;;;5048379;28;20224;-51
2021/05/14 08:47:41;;;;;;;16.83;12.00;;;16.30;1.00;;;;;;5051997;28;20393;-50
2021/05/14 08:50:11;;;;;;;17.03;11.90;;;16.40;1.00;;;;;;5051635;28;20595;-51
2021/05/14 08:52:40;;;;;;;17.23;11.97;;;16.70;1.00;;;;;;5052219;28;20203;-50
2021/05/14 08:55:09;;;;;;;17.03;11.10;;;17.00;1.00;;;;;;5052820;28;20236;-50
2021/05/14 08:57:37;;;;;;;16.23;11.77;;;16.60;1.00;;;;;;5053833;28;20204;-50
2021/05/14 09:00:06;;;;;;;14.30;10.73;;;16.60;1.00;;;;;;5049674;28;20559;-50
2021/05/14 09:02:34;;;;;;;14.90;11.07;;;16.50;1.00;;;;;;5047584;28;20242;-51
2021/05/14 09:05:25;;;;;;;16.60;11.77;;;16.30;1.00;;;;;;5051195;28;20587;-50
2021/05/14 09:07:55;;;;;;;17.07;10.90;;;16.20;1.00;;;;;;5048421;28;20205;-49
2021/05/14 09:10:24;;;;;;;14.70;10.30;;;16.50;1.00;;;;;;5052302;28;20566;-50
2021/05/14 09:12:51;;;;;;;14.83;10.77;;;16.20;1.00;;;;;;5052913;28;20234;-49
2021/05/14 09:15:35;;;;;;;14.70;10.83;;;16.50;1.00;;;;;;5050550;28;20238;-50
2021/05/14 09:18:04;;;;;;;14.67;10.40;;;16.80;1.00;;;;;;5049935;28;20740;-50
2021/05/14 09:20:40;;;;;;;14.80;10.87;;;17.00;1.00;;;;;;5050802;28;20280;-49
2021/05/14 09:23:16;;;;;;;15.67;11.47;;;17.20;1.00;;;;;;5050654;28;20195;-50
2021/05/14 09:26:02;;;;;;;17.77;11.27;;;16.70;1.00;;;;;;5052664;28;20247;-50
2021/05/14 09:28:37;;;;;;;17.70;10.57;;;16.70;1.00;;;;;;5051699;28;20737;-50
2021/05/14 09:31:22;;;;;;;17.93;10.30;;;16.70;1.00;;;;;;5041901;28;20202;-50
2021/05/14 09:33:59;;;;;;;17.00;11.33;;;17.00;1.00;;;;;;5046815;28;20603;-50
2021/05/14 09:36:31;;;;;;;14.30;10.93;;;16.90;1.00;;;;;;5046463;28;20556;-50
2021/05/14 09:39:04;;;;;;;14.40;10.20;;;17.10;1.00;;;;;;5050913;28;20824;-50
2021/05/14 09:41:42;;;;;;;14.97;11.33;;;17.40;1.00;;;;;;5049740;28;20201;-50
2021/05/14 09:44:19;;;;;;;15.13;10.67;;;17.60;1.00;;;;;;5047080;28;20210;-50
2021/05/14 09:46:51;;;;;;;14.33;10.57;;;17.40;1.00;;;;;;5046763;28;20268;-50
2021/05/14 09:49:20;;;;;;;12.70;10.07;;;17.00;1.00;;;;;;5052204;28;20215;-50
2021/05/14 09:51:52;;;;;;;15.13;11.10;;;17.60;1.00;;;;;;5047432;28;20745;-50
2021/05/14 09:54:34;;;;;;;15.97;11.30;;;17.50;1.00;;;;;;5048975;28;20643;-50
2021/05/14 10:00:04;;;;;;;16.07;11.63;;;18.00;1.00;;;;;;5049827;28;20210;-51
2021/05/14 10:02:37;;;;;;;13.10;10.10;;;17.80;99.90;;;;;;5048893;28;20197;-50
2021/05/14 10:05:10;;;;;;;14.23;11.07;;;17.70;1.00;;;;;;5048583;28;20654;-51
2021/05/14 10:07:39;;;;;;;13.97;10.20;;;17.60;1.00;;;;;;5045705;28;20208;-51
2021/05/14 10:10:09;;;;;;;12.67;9.77;;;17.60;1.00;;;;;;5050623;28;20195;-49
2021/05/14 10:12:36;;;;;;;12.97;9.83;;;17.80;99.90;;;;;;5049141;28;20604;-49
2021/05/14 10:15:07;;;;;;;13.83;10.27;;;17.60;99.90;;;;;;5052015;28;20247;-50
2021/05/14 10:17:36;;;;;;;12.93;10.17;;;17.90;99.90;;;;;;5049714;28;20489;-49
2021/05/14 10:20:06;;;;;;;13.80;10.27;;;18.30;99.90;;;;;;5048390;28;20203;-51
2021/05/14 10:22:35;;;;;;;16.90;10.33;;;18.10;99.90;;;;;;5050837;28;20209;-50
2021/05/14 10:25:02;;;;;;;12.87;10.33;;;18.30;99.90;;;;;;5051210;28;20695;-48
2021/05/14 10:27:37;;;;;;;13.33;10.77;;;18.60;99.90;;;;;;5052173;28;20226;-49
2021/05/14 10:30:05;;;;;;;14.87;10.87;;;18.40;99.90;;;;;;5050045;28;20204;-49
2021/05/14 10:32:44;;;;;;;14.47;11.17;;;18.10;99.90;;;;;;5045561;28;20306;-49
2021/05/14 10:35:13;;;;;;;11.83;9.67;;;18.00;99.90;;;;;;5046582;28;20291;-49
2021/05/14 10:37:47;;;;;;;12.70;9.47;;;18.20;99.90;;;;;;5044106;28;20285;-49
2021/05/14 10:43:00;;;;;;;13.53;10.13;;;18.50;99.90;;;;;;5043302;28;20203;-49
2021/05/14 10:45:37;;;;;;;11.93;8.60;;;17.80;99.90;;;;;;5047946;28;20233;-49
2021/05/14 10:48:19;;;;;;;14.20;9.17;;;17.40;99.90;;;;;;5050603;28;20204;-49
2021/05/14 10:51:10;;;;;;;10.40;8.43;;;17.60;99.90;;;;;;5047572;28;20315;-50
2021/05/14 10:53:39;;;;;;;9.83;7.57;;;18.20;99.90;;;;;;5049143;28;21044;-49
2021/05/14 10:56:09;;;;;;;12.07;8.20;;;18.60;99.90;;;;;;5048295;28;20608;-49
2021/05/14 10:59:07;;;;;;;12.03;9.23;;;19.10;99.90;;;;;;5049228;28;20207;-52
2021/05/14 11:01:35;;;;;;;9.10;7.63;;;19.00;99.90;;;;;;5050018;28;20546;-49
2021/05/14 11:04:14;;;;;;;11.37;8.53;;;18.70;99.90;;;;;;5044937;28;20210;-49
2021/05/14 11:06:49;;;;;;;13.93;9.23;;;18.60;99.90;;;;;;5049089;28;20607;-49
2021/05/14 11:09:22;;;;;;;11.70;8.87;;;18.10;99.90;;;;;;5044851;28;20227;-50
2021/05/14 11:12:03;;;;;;;12.03;9.07;;;17.60;99.90;;;;;;5043513;28;20222;-49
2021/05/14 11:14:44;;;;;;;11.17;8.63;;;17.60;99.90;;;;;;5043230;28;20222;-52
2021/05/14 11:17:15;;;;;;;12.17;8.37;;;17.80;99.90;;;;;;5048348;28;20622;-49
2021/05/14 11:19:50;;;;;;;10.73;8.33;;;17.90;99.90;;;;;;5044944;28;20204;-50
2021/05/14 11:22:23;;;;;;;12.13;8.47;;;18.00;99.90;;;;;;5047393;28;20244;-50
2021/05/14 11:25:01;;;;;;;11.97;8.27;;;18.00;99.90;;;;;;5047508;28;20349;-50
2021/05/14 11:27:33;;;;;;;10.93;7.67;;;17.60;99.90;;;;;;5049354;28;20704;-49
2021/05/14 11:30:04;;;;;;;9.10;7.57;;;17.80;99.90;;;;;;5049326;28;20610;-49
2021/05/14 11:32:37;;;;;;;9.93;8.07;;;17.40;99.90;;;;;;5048259;28;20209;-50
2021/05/14 11:35:15;;;;;;;10.00;7.50;;;17.40;99.90;;;;;;5047536;28;20260;-49
2021/05/14 11:37:51;;;;;;;9.80;7.37;;;17.20;99.90;;;;;;5048617;28;20267;-49
2021/05/14 11:40:43;;;;;;;8.87;6.97;;;17.60;99.90;;;;;;5042141;28;20685;-49
2021/05/14 11:43:14;;;;;;;10.10;6.57;;;17.40;99.90;;;;;;5049252;28;20286;-49
2021/05/14 11:45:45;;;;;;;8.47;6.27;;;17.10;99.90;;;;;;5044335;28;20234;-49
2021/05/14 11:48:21;;;;;;;8.50;6.97;;;17.00;99.90;;;;;;5048428;28;20720;-50
2021/05/14 11:50:53;;;;;;;9.83;6.83;;;16.90;99.90;;;;;;5045425;28;20290;-52
2021/05/14 11:53:21;;;;;;;8.13;6.50;;;17.10;99.90;;;;;;5047613;28;20267;-50
2021/05/14 11:55:51;;;;;;;10.53;7.47;;;17.30;99.90;;;;;;5043309;28;20307;-49
2021/05/14 11:58:18;;;;;;;10.60;7.70;;;17.50;99.90;;;;;;5046439;28;20240;-49
2021/05/14 12:00:51;;;;;;;7.63;6.70;;;17.70;99.90;;;;;;5046292;28;20228;-49
2021/05/14 12:03:22;;;;;;;7.13;6.27;;;18.10;99.90;;;;;;5046709;28;20213;-50
2021/05/14 12:05:50;;;;;;;8.50;7.17;;;18.70;99.90;;;;;;5044235;28;22085;-50
2021/05/14 12:08:27;;;;;;;10.67;8.77;;;19.20;99.90;;;;;;5040535;28;20306;-50
2021/05/14 12:10:57;;;;;;;14.83;10.33;;;19.30;99.90;;;;;;5039374;28;20204;-50
2021/05/14 12:13:27;;;;;;;15.83;9.70;;;18.50;99.90;;;;;;5038988;28;20228;-50
2021/05/14 12:15:58;;;;;;;12.30;9.27;;;18.80;99.90;;;;;;5040574;28;20202;-49
2021/05/14 12:18:27;;;;;;;12.50;9.03;;;18.50;99.90;;;;;;5043040;28;20658;-50
2021/05/14 12:20:59;;;;;;;12.60;10.07;;;18.60;99.90;;;;;;5048099;28;20201;-50
2021/05/14 12:23:28;;;;;;;12.83;9.03;;;18.50;99.90;;;;;;5050983;28;20247;-50
2021/05/14 12:25:58;;;;;;;14.03;9.83;;;18.20;99.90;;;;;;5053522;28;20314;-50
2021/05/14 12:28:45;;;;;;;13.17;10.07;;;18.20;99.90;;;;;;5052585;28;20757;-49
2021/05/14 12:31:29;;;;;;;14.23;10.37;;;17.90;99.90;;;;;;5047330;28;20698;-50
2021/05/14 12:33:59;;;;;;;12.27;10.33;;;17.60;99.90;;;;;;5047543;28;20202;-50
2021/05/14 12:36:28;;;;;;;11.87;9.17;;;17.60;99.90;;;;;;5047873;28;20199;-49
2021/05/14 12:39:08;;;;;;;11.07;9.80;;;18.10;99.90;;;;;;5053737;28;20275;-50
2021/05/14 12:41:40;;;;;;;12.67;9.33;;;18.20;99.90;;;;;;5054364;28;20246;-49
2021/05/14 12:44:09;;;;;;;13.17;9.33;;;18.80;99.90;;;;;;5053348;28;20250;-49
2021/05/14 12:46:38;;;;;;;11.53;9.17;;;19.10;99.90;;;;;;5053715;28;20233;-49
2021/05/14 12:49:12;;;;;;;12.63;9.27;;;18.60;99.90;;;;;;5054057;28;20211;-49
2021/05/14 12:51:39;;;;;;;12.50;9.43;;;17.80;99.90;;;;;;5055920;28;20316;-50